Date,TemperatureHighF,TemperatureAvgF,TemperatureLowF,DewpointHighF,DewpointAvgF,DewpointLowF,HumidityHigh,HumidityAvg,HumidityLow,PressureMaxIn,PressureMinIn,WindSpeedMaxMPH,WindSpeedAvgMPH,GustSpeedMaxMPH,PrecipitationSumIn
2013-1-4,37.2,33.4,29.8,21.6,21.0,20.2,69,60,52,30.55,30.51,4,2,5,0.00
2013-1-5,41.9,36.1,27.3,32.1,26.5,17.6,82,68,54,30.52,30.32,7,2,9,0.00
2013-1-6,48.6,36.1,27.0,30.0,22.3,12.8,86,60,27,30.55,30.39,6,2,9,0.00
2013-1-7,54.9,37.8,24.8,28.0,20.3,15.3,68,51,24,30.56,30.26,7,3,10,0.00
2013-1-8,59.0,44.0,29.8,47.2,34.3,20.9,99,70,47,30.31,30.10,9,3,11,0.04
2013-1-9,53.1,49.3,45.7,47.2,43.5,37.9,99,82,60,30.45,30.31,24,9,31,0.09
2013-1-10,58.3,49.8,44.8,56.6,47.5,40.7,99,92,73,30.34,29.89,24,7,29,0.25
2013-1-11,66.9,55.4,45.9,46.2,44.1,40.9,93,68,40,30.00,29.81,12,5,17,0.82
2013-1-12,57.7,44.5,30.6,50.6,38.2,27.9,96,80,52,30.14,29.94,19,3,24,0.18
2013-1-13,30.9,23.6,17.2,28.3,16.2,9.8,90,73,55,30.57,30.12,0,0,0,0.00
2013-1-14,30.4,21.9,15.3,10.9,7.7,1.4,75,56,31,30.64,30.46,13,2,17,0.00
2013-1-15,33.3,24.4,17.4,18.0,11.1,7.7,76,57,41,30.50,30.27,11,4,14,0.00
2013-1-16,44.8,30.6,17.1,22.8,15.0,11.0,85,56,27,30.35,30.19,6,1,8,0.00
2013-1-17,47.3,36.6,27.0,31.2,22.8,12.6,75,58,40,30.63,30.33,10,3,16,0.00
2013-1-18,58.8,40.8,23.9,29.7,22.5,16.0,81,53,21,30.67,30.35,8,3,12,0.00
2013-1-19,64.2,51.5,41.9,36.3,31.2,23.4,69,47,31,30.36,30.16,6,3,10,0.00
2013-1-20,62.6,46.8,35.1,36.2,28.9,14.9,82,52,27,30.43,30.20,11,4,13,0.00
2013-1-21,41.2,30.0,23.0,17.9,11.2,4.7,61,46,26,30.56,30.41,12,5,16,0.00
2013-1-22,45.9,32.8,21.6,23.8,17.3,9.6,63,53,41,30.49,30.30,8,3,10,0.00
2013-1-23,63.0,44.7,27.1,44.4,32.5,-18.8,79,63,5,30.41,30.20,14,2,16,4.03
2013-1-24,44.2,37.6,32.0,33.6,21.5,10.7,93,53,34,30.47,30.25,19,11,23,0.00
2013-1-25,50.0,37.4,28.0,34.2,30.4,27.0,99,78,49,30.43,30.25,6,2,7,0.00
2013-1-26,58.8,45.7,35.1,31.6,22.1,14.9,76,43,21,30.43,30.26,17,6,62,4.03
2013-1-27,60.1,53.2,45.3,55.8,47.6,31.4,95,81,57,30.28,30.05,15,6,18,0.00
2013-1-28,72.1,66.2,59.7,60.7,59.3,55.8,88,79,63,30.08,29.93,17,6,20,0.00
2013-1-29,69.1,60.7,47.7,62.4,57.0,47.4,99,88,75,29.93,29.53,14,5,21,1.82
2013-1-30,48.0,32.9,24.1,47.8,27.1,16.4,99,79,62,30.25,29.62,13,4,17,0.00
2013-1-31,51.3,30.0,18.9,28.5,18.2,3.8,90,64,31,30.60,30.18,11,3,14,0.00
2013-2-1,43.9,27.3,12.6,12.3,4.4,-3.0,60,39,21,30.65,30.30,15,5,17,0.00
2013-2-2,55.6,33.9,25.3,28.1,17.3,11.6,71,51,31,30.38,30.30,5,1,7,0.00
2013-2-8,40.3,39.0,37.8,31.1,30.8,30.4,75,72,69,30.38,30.36,7,4,8,0.00
2013-2-9,46.8,39.1,31.6,42.2,32.2,26.6,96,78,48,30.40,29.98,17,8,22,0.07
2013-2-10,63.0,52.4,41.2,53.3,37.8,24.0,99,64,26,30.20,29.75,21,6,24,0.47
2013-2-11,54.9,43.2,31.6,28.1,23.2,16.3,76,48,22,30.32,30.20,6,2,9,0.00
2013-2-12,44.1,37.5,33.3,34.7,28.4,23.1,99,71,53,30.31,30.04,14,4,17,0.17
2013-2-13,52.2,40.4,32.4,37.2,32.2,29.3,99,75,44,30.18,30.03,8,2,10,0.02
2013-2-14,58.3,46.8,36.7,33.6,29.9,24.1,75,53,34,30.30,30.08,8,3,11,0.00
2013-2-15,44.1,35.2,26.1,30.2,17.6,2.7,76,50,23,30.50,30.30,11,4,13,0.00
2013-2-16,41.4,31.7,24.3,22.0,15.0,8.6,80,51,33,30.51,30.30,9,2,12,0.00
2013-2-17,64.6,49.0,32.4,32.2,21.2,8.9,49,35,19,30.30,29.95,9,4,13,0.00
2013-2-18,56.1,50.1,34.0,53.6,39.2,22.1,96,68,36,30.26,29.70,12,7,20,0.08
2013-2-19,45.9,35.6,26.6,22.4,15.7,11.1,65,45,27,30.44,30.26,10,3,12,0.00
2013-2-20,33.1,29.7,25.9,29.4,19.4,9.4,97,67,42,30.47,30.22,16,6,20,0.00
2013-2-21,34.9,31.2,27.5,34.4,28.8,19.7,99,91,68,30.24,29.83,17,2,21,0.16
2013-2-22,38.8,29.9,21.2,32.9,19.5,14.5,97,66,46,30.26,29.99,7,3,14,0.02
2013-2-23,44.6,32.2,19.8,23.3,19.8,16.0,87,62,35,30.26,30.07,6,1,8,0.02
2013-2-24,57.4,42.8,28.0,34.0,27.6,19.9,77,57,31,30.17,29.94,17,7,21,0.00
2013-2-25,42.3,38.7,35.2,39.1,32.9,27.5,97,80,59,30.04,29.54,24,11,29,0.25
2013-2-26,35.2,32.6,31.1,34.5,31.1,29.5,99,94,87,30.02,29.49,10,4,13,0.02
2013-2-27,39.0,33.5,30.6,29.8,27.2,23.5,89,78,62,30.22,29.99,10,3,14,0.02
2013-2-28,36.9,32.0,27.5,25.1,23.6,21.4,87,71,57,30.33,30.20,8,4,11,0.00
2013-3-1,32.0,28.6,25.3,22.4,19.1,14.7,78,67,57,30.41,30.30,8,4,12,0.00
2013-3-2,38.3,29.3,24.8,20.5,16.0,9.4,81,59,32,30.48,30.37,10,3,12,0.00
2013-3-3,58.3,41.4,23.0,29.8,22.1,13.7,73,49,26,30.38,29.92,14,5,16,0.00
2013-3-4,64.4,54.4,44.6,46.9,39.6,28.9,85,58,43,29.95,29.69,16,7,18,0.00
2013-3-5,44.6,38.2,30.9,35.3,24.1,14.2,97,59,35,30.45,29.95,15,6,21,0.09
2013-3-6,49.1,36.2,24.3,23.7,18.0,13.9,67,49,27,30.56,30.38,10,4,16,0.00
2013-3-7,62.1,48.6,35.2,30.7,23.5,18.3,61,40,19,30.40,30.24,14,6,16,0.00
2013-3-8,62.4,52.0,41.0,35.9,32.5,30.1,69,49,32,30.39,30.17,17,8,21,0.00
2013-3-9,68.5,58.5,52.3,58.0,46.5,34.6,99,67,39,30.17,29.81,23,9,28,0.79
2013-3-10,56.3,44.2,28.9,56.0,43.2,26.8,99,96,80,30.13,29.80,13,3,16,0.77
2013-3-11,45.1,34.0,26.6,27.5,22.3,17.0,92,64,34,30.20,30.07,8,2,11,0.00
2013-3-12,57.2,42.1,27.9,32.5,23.7,14.9,85,53,21,30.45,30.19,11,3,14,0.00
2013-3-13,50.7,40.5,28.8,20.6,16.3,9.0,70,40,22,30.61,30.46,9,2,11,0.00
2013-3-14,72.0,53.1,33.4,42.2,29.3,16.6,59,42,22,30.51,30.19,8,3,11,0.00
2013-3-15,80.2,67.5,55.2,47.2,43.1,36.7,67,44,22,30.23,29.87,11,4,14,0.00
2013-3-16,76.6,65.9,51.6,50.2,45.3,40.4,67,48,38,29.98,29.81,15,5,21,0.01
2013-3-17,51.4,43.1,39.6,44.3,40.7,37.8,99,92,67,30.04,29.81,19,9,24,0.09
2013-3-18,54.1,45.1,39.7,43.7,37.5,26.5,99,78,38,30.18,29.83,10,3,12,0.01
2013-3-19,57.7,44.3,32.7,31.1,23.2,13.1,88,48,20,30.38,30.18,14,4,20,0.00
2013-3-20,46.6,38.2,29.3,31.2,22.8,7.1,90,58,21,30.50,30.36,13,4,19,0.00
2013-3-22,35.1,35.1,35.1,34.6,34.6,34.6,98,98,98,30.10,30.07,10,8,12,0.21
2013-3-23,39.9,36.8,34.3,39.7,36.4,33.8,99,98,97,30.08,29.85,15,7,20,0.00
2013-3-24,39.4,32.4,26.6,39.1,28.5,15.8,99,86,59,30.31,29.78,11,4,16,0.03
2013-3-25,33.3,27.8,23.5,21.2,17.6,13.8,77,65,55,30.50,30.28,9,4,14,0.00
2013-3-26,45.0,33.2,23.0,23.9,19.4,16.2,86,59,34,30.59,30.44,7,2,10,0.00
2013-3-27,61.5,44.4,26.2,28.2,21.3,16.7,73,44,19,30.49,30.24,14,5,17,0.00
2013-3-28,71.2,58.2,46.6,47.3,38.8,28.0,66,49,34,30.35,30.19,10,5,12,0.00
2013-3-29,68.0,58.3,50.7,55.8,51.7,46.7,99,80,56,30.34,30.18,11,4,12,9.87
2013-3-30,70.7,59.2,52.2,56.4,54.0,51.2,99,84,55,30.23,29.97,11,4,13,0.00
2013-3-31,70.3,57.8,50.4,54.4,45.2,32.1,99,68,26,30.12,29.99,16,3,20,9.87
2013-4-1,65.8,49.7,41.0,43.9,40.1,34.2,96,72,36,30.33,30.12,15,4,18,0.00
2013-4-2,42.8,36.5,34.2,35.7,33.2,28.1,97,88,66,30.43,30.32,17,9,21,0.00
2013-4-3,48.7,41.9,34.9,30.5,24.1,17.9,79,51,32,30.38,30.27,24,10,29,0.00
2013-4-4,54.0,46.4,37.6,37.1,32.8,28.1,91,61,42,30.29,30.16,14,3,16,0.00
2013-4-5,73.0,53.6,31.8,40.0,30.9,23.3,97,50,17,30.33,30.09,10,2,11,0.00
2013-4-6,75.2,64.1,55.4,48.2,41.8,32.5,57,45,29,30.12,29.88,13,5,18,0.00
2013-4-7,76.3,64.9,54.1,56.7,52.9,47.3,88,66,46,30.05,29.86,21,5,26,0.00
2013-4-8,69.6,64.7,58.6,60.5,58.0,6.4,99,79,70,29.94,29.83,18,7,52,0.00
2013-4-9,79.5,70.7,63.7,62.8,59.3,56.0,80,68,49,29.90,29.80,18,8,23,0.00
2013-4-10,73.6,49.7,35.8,65.0,47.7,35.0,99,94,69,30.06,29.82,12,4,16,0.00
2013-4-11,52.7,40.2,32.4,35.0,31.7,28.0,99,75,43,30.05,29.84,10,3,13,0.00
2013-4-12,57.4,46.5,35.4,35.3,30.8,24.6,86,57,33,30.18,29.95,8,3,14,0.00
2013-4-13,67.1,54.5,41.0,48.3,41.2,34.6,88,62,44,30.21,29.90,14,4,17,0.00
2013-4-14,78.6,68.7,58.6,51.9,46.5,40.7,64,47,29,29.93,29.61,17,7,24,0.00
2013-4-15,79.5,69.2,59.4,64.4,58.9,51.9,86,70,56,29.92,29.77,15,5,25,0.00
2013-4-16,78.8,63.9,52.3,62.4,57.2,51.5,98,81,54,30.12,29.91,10,4,11,0.00
2013-4-17,82.4,73.6,60.4,68.8,64.2,57.2,96,74,55,30.08,29.71,23,8,30,0.00
2013-4-18,75.9,50.5,37.6,66.1,46.2,29.0,99,86,64,30.15,29.65,19,5,26,0.00
2013-4-19,54.7,43.7,32.7,32.1,24.8,16.0,75,50,22,30.24,30.14,9,3,14,0.00
2013-4-20,69.3,53.3,34.5,39.2,32.0,25.2,84,50,19,30.32,30.18,10,2,12,0.00
2013-4-21,67.6,58.1,50.0,41.4,36.1,24.1,65,46,20,30.41,30.22,20,6,26,0.00
2013-4-22,70.9,60.6,46.8,45.3,39.1,31.6,72,47,25,30.34,30.00,18,6,24,0.00
2013-4-23,64.6,52.1,35.2,55.2,44.9,34.7,99,79,55,30.28,29.92,14,4,17,0.00
2013-4-24,57.7,43.5,33.4,34.7,29.1,18.0,99,63,24,30.46,30.27,8,3,12,0.00
2013-4-25,70.3,53.4,31.3,40.7,28.6,18.6,98,48,15,30.52,30.29,12,3,15,0.00
2013-4-26,58.8,50.7,46.9,49.9,44.9,33.2,99,83,39,30.49,30.25,19,8,24,0.00
2013-4-27,57.2,52.1,49.5,56.9,51.7,49.2,99,98,97,30.28,30.10,17,2,19,0.00
2013-4-28,78.1,60.9,48.7,54.1,49.8,46.1,99,71,34,30.18,29.97,6,2,7,0.00
2013-4-29,86.9,71.0,53.2,60.8,54.3,49.7,95,60,30,30.05,29.85,8,3,11,0.00
2013-4-30,82.2,72.6,61.2,58.7,50.7,37.0,81,50,21,29.99,29.89,23,6,28,0.00
2013-5-1,83.1,70.0,58.5,63.5,57.1,50.0,87,65,40,30.20,29.99,23,5,32,0.00
2013-5-2,64.0,49.6,33.8,59.0,47.2,33.3,99,92,81,30.44,30.17,9,4,11,0.00
2013-5-3,42.3,35.7,31.8,40.4,34.6,31.4,99,96,68,30.41,30.10,10,3,13,0.00
2013-5-4,45.7,39.0,33.8,39.1,36.0,33.3,99,89,71,30.16,30.00,5,2,8,0.00
2013-5-5,61.2,48.5,36.9,48.5,42.1,36.1,99,81,49,30.23,30.12,8,3,10,0.00
2013-5-6,63.0,54.2,48.0,52.8,50.1,47.8,99,87,67,30.22,30.12,7,2,9,0.00
2013-5-7,78.4,61.7,41.9,56.4,49.2,41.6,99,69,36,30.23,30.06,5,1,8,0.00
2013-5-8,81.0,67.7,53.4,57.3,54.3,48.8,94,65,36,30.15,30.00,13,3,15,0.00
2013-5-9,82.4,65.9,57.6,62.2,58.3,55.2,99,79,43,30.14,29.99,20,2,21,0.00
2013-5-10,73.4,62.2,55.6,65.0,57.3,52.7,99,85,55,30.19,30.03,6,2,8,0.00
2013-5-11,75.9,61.3,47.3,58.7,46.6,25.7,99,64,21,30.35,30.16,9,3,14,0.00
2013-5-12,68.7,34.7,42.6,43.0,-14.1,-99.9,87,34,17,30.44,30.29,8,-361,10,0.17
2013-5-13,-200.0,0.0,200.0,-99.9,-99.9,-99.9,0,0,100,0.00,40.00,0,-999,0,0.00
2013-5-14,-200.0,0.0,200.0,-99.9,-99.9,-99.9,0,0,100,0.00,40.00,0,-999,0,0.00
2013-5-15,78.6,38.4,64.0,66.2,-8.1,-99.9,99,49,63,30.09,30.00,8,-441,11,0.28
2013-5-16,68.2,63.7,60.8,64.5,61.8,59.7,99,94,83,30.02,29.93,10,4,11,0.03
2013-5-17,82.8,69.3,55.4,65.8,61.6,55.1,99,79,49,30.05,29.94,5,1,7,0.00
2013-5-18,87.4,74.8,64.2,73.4,69.2,63.3,99,84,61,30.05,29.90,12,4,16,0.00
2013-5-19,88.0,78.5,72.0,71.2,66.3,58.9,93,70,39,29.95,29.77,17,4,23,0.00
2013-5-21,62.1,59.4,57.7,59.8,58.3,57.1,99,96,85,30.01,29.71,15,3,17,1.25
2013-5-22,78.1,65.9,54.1,62.1,56.9,53.3,99,76,49,30.08,29.93,6,1,8,0.01
2013-5-23,77.2,65.5,42.3,62.9,58.4,38.7,99,80,53,30.28,30.04,6,2,9,7.68
2013-5-24,74.7,65.3,55.8,58.9,55.4,50.5,93,72,56,30.41,30.26,14,6,17,0.00
2013-5-25,82.9,69.9,57.4,65.7,57.9,50.2,85,67,49,30.37,30.17,11,4,14,0.00
2013-5-26,84.2,73.8,63.3,66.3,63.5,60.9,97,72,51,30.24,30.07,12,4,16,0.00
2013-5-27,84.9,75.0,68.2,68.8,65.8,63.9,94,74,54,30.12,29.91,15,5,18,0.00
2013-5-28,83.3,75.9,72.0,66.9,64.5,61.7,82,69,50,29.99,29.88,14,6,20,0.00
2013-5-29,79.5,74.7,69.1,66.8,64.9,63.5,86,72,60,30.01,29.86,17,7,22,0.00
2013-5-30,80.6,70.2,61.9,68.6,65.2,60.9,99,85,65,29.99,29.84,18,8,28,0.66
2013-5-31,85.1,75.3,62.2,73.0,68.7,60.5,98,81,63,29.94,29.74,13,4,17,0.00
2013-6-1,77.4,68.8,61.7,72.5,63.9,56.5,99,85,66,30.11,29.80,11,3,16,0.45
2013-6-2,69.8,62.0,54.9,60.3,56.3,54.0,99,83,61,30.17,30.11,4,2,7,0.00
2013-6-3,78.8,64.4,47.7,61.7,55.2,47.4,99,75,43,30.22,29.99,7,2,8,0.00
2013-6-4,75.9,67.9,61.0,66.5,61.4,57.8,92,80,65,30.12,30.00,12,4,17,0.00
2013-6-5,82.6,69.3,61.9,70.7,63.6,59.6,99,83,55,30.15,29.93,8,2,10,0.44
2013-6-6,75.4,66.4,59.4,65.2,61.2,57.7,99,84,63,30.07,29.98,6,2,9,0.00
2013-6-7,81.7,67.5,56.1,60.5,55.6,50.2,99,69,34,30.10,30.00,8,2,10,0.00
2013-6-8,82.0,76.1,67.6,59.5,57.1,53.4,74,53,39,30.02,29.94,8,4,11,0.01
2013-6-9,84.2,73.5,64.6,68.9,60.7,55.2,92,67,38,30.03,29.93,6,2,10,0.01
2013-6-10,94.3,79.6,66.2,69.8,64.1,57.9,79,61,37,30.03,29.93,4,2,8,0.00
2013-6-11,97.3,84.0,72.3,70.4,67.1,61.6,83,59,32,30.09,30.00,7,2,9,0.00
2013-6-12,92.3,83.0,74.7,71.5,69.6,65.9,87,66,44,30.10,29.98,8,3,11,0.00
2013-6-13,93.4,82.1,73.0,73.6,69.2,61.9,90,67,37,30.11,30.03,4,2,6,0.00
2013-6-14,91.8,79.3,68.0,74.5,69.8,65.5,95,74,53,30.15,30.00,8,3,12,3.75
2013-6-15,94.1,78.3,69.3,72.4,68.2,63.6,99,73,48,30.17,30.02,10,3,15,0.15
2013-6-16,91.6,76.8,68.9,72.8,69.4,66.7,99,80,51,30.13,29.98,9,2,11,0.01
2013-6-17,77.5,69.8,66.9,71.1,67.4,65.3,99,92,73,30.08,29.98,7,2,10,0.32
2013-6-18,83.1,73.4,64.0,70.2,64.9,59.1,99,77,48,30.13,30.05,6,2,8,0.01
2013-6-19,86.7,74.8,61.3,68.6,64.2,60.8,99,72,44,30.18,30.05,9,2,11,0.00
2013-6-20,89.8,78.1,65.8,71.0,67.5,64.0,95,72,46,30.19,30.08,13,4,17,0.00
2013-6-21,91.6,82.4,73.6,73.4,71.0,68.6,91,70,49,30.19,30.09,10,4,14,0.00
2013-6-22,90.7,81.5,73.4,72.7,70.3,65.8,88,71,45,30.15,30.04,10,4,12,0.00
2013-6-23,91.2,80.6,71.6,72.9,69.6,65.2,93,71,47,30.11,30.00,11,4,14,0.00
2013-6-24,91.6,81.5,73.0,73.1,69.3,67.4,89,68,47,30.15,30.04,8,4,11,0.00
2013-6-25,90.3,81.5,75.2,72.2,69.1,65.9,86,67,47,30.10,29.94,16,4,21,0.00
2013-6-26,96.4,84.6,76.8,76.2,72.1,69.3,89,68,47,30.04,29.93,5,2,8,0.00
2013-6-27,100.8,86.6,72.3,75.5,73.3,70.6,98,69,41,30.09,29.94,4,1,5,0.00
2013-6-28,93.0,83.9,75.4,75.8,68.5,57.9,86,62,38,30.03,29.92,6,2,8,0.00
2013-6-29,87.3,76.9,64.4,63.2,56.8,50.9,92,52,31,30.01,29.88,10,3,14,0.00
2013-6-30,79.0,70.4,63.0,63.2,59.6,54.6,90,70,49,30.08,29.95,9,3,13,0.00
2013-7-1,82.2,71.9,62.1,62.1,56.3,48.0,93,61,33,30.16,30.08,8,3,10,0.00
2013-7-2,81.7,70.8,55.8,63.7,54.0,46.6,96,59,32,30.22,30.12,6,2,8,0.00
2013-7-3,86.9,70.5,53.4,60.1,52.5,44.7,99,59,26,30.25,30.08,8,1,10,0.00
2013-7-4,90.0,73.4,57.2,63.0,56.3,51.0,86,58,31,30.20,30.05,5,1,8,0.00
2013-7-5,92.5,77.0,61.2,63.0,58.3,54.3,86,56,30,30.17,30.01,8,2,8,0.00
2013-7-6,92.8,78.5,65.1,67.9,61.4,55.9,91,59,32,30.14,30.00,6,2,8,0.00
2013-7-14,86.4,80.4,74.3,63.6,57.8,50.4,69,47,33,30.17,30.06,12,6,15,0.02
2013-7-15,90.7,77.8,68.9,70.5,65.4,59.9,88,68,39,30.28,30.12,24,4,29,0.01
2013-7-16,88.0,75.2,69.1,73.6,70.9,67.9,98,88,55,30.39,30.28,8,1,11,0.15
2013-7-17,92.7,80.8,68.4,73.4,67.7,62.2,99,69,39,30.43,30.25,10,2,12,0.00
2013-7-18,98.4,83.6,68.5,73.0,67.9,63.4,95,63,33,30.34,30.10,8,1,11,0.00
2013-7-19,98.2,79.7,69.4,72.4,69.4,66.5,96,73,40,30.18,30.02,17,2,23,0.00
2013-7-20,95.9,79.2,68.0,72.6,69.4,66.9,99,75,43,30.10,29.91,15,2,18,0.00
2013-7-21,81.7,75.3,68.9,76.7,72.1,68.3,99,90,77,30.07,29.93,5,1,7,0.00
2013-7-22,77.2,70.5,65.1,73.0,68.3,63.6,99,93,85,30.06,29.96,17,3,24,0.00
2013-7-27,68.7,67.9,66.7,60.3,59.7,58.9,76,75,74,30.12,30.09,2,2,3,0.00
2013-7-28,82.0,69.5,62.8,68.5,62.9,58.8,92,80,58,30.17,30.09,8,2,11,0.00
2013-7-29,84.4,76.1,67.8,74.0,69.3,64.0,96,80,65,30.18,30.07,14,5,17,0.01
2013-7-30,90.5,79.0,71.1,75.3,72.9,70.3,99,83,55,30.16,30.06,9,1,13,0.00
2013-7-31,92.5,79.8,70.5,76.7,72.7,69.9,99,81,52,30.18,30.08,6,1,10,0.00
2013-8-1,91.6,77.5,67.8,71.1,67.8,63.4,99,75,43,30.22,30.07,7,2,8,0.00
2013-8-2,85.5,78.1,70.3,76.5,72.2,66.5,94,82,71,30.12,29.97,8,3,10,0.00
2013-8-3,91.2,78.1,67.5,76.0,72.9,67.2,99,85,54,30.24,29.98,11,2,15,0.01
2013-8-4,76.8,74.2,72.3,75.3,72.2,68.6,99,93,83,30.23,30.11,11,3,15,0.00
2013-8-5,94.6,81.6,72.3,78.0,74.0,68.8,95,79,53,30.15,29.93,8,3,10,0.00
2013-8-6,94.1,82.1,74.8,77.2,74.5,70.9,93,79,53,30.05,29.89,8,3,12,0.00
2013-8-7,91.2,81.3,75.4,79.9,74.5,70.2,94,80,59,30.08,29.92,14,3,20,0.00
2013-8-8,87.1,75.1,66.9,75.4,71.6,66.6,99,90,62,30.14,29.95,14,2,21,0.00
2013-8-9,84.0,75.5,69.3,74.4,70.7,69.0,99,86,62,30.14,30.02,6,1,8,0.00
2013-8-10,79.3,74.0,70.0,71.4,70.2,68.9,98,88,74,30.21,30.13,10,4,12,0.00
2013-8-11,86.2,76.4,70.0,75.4,72.1,68.8,99,87,65,30.21,30.10,7,2,9,0.00
2013-8-12,91.4,75.2,70.0,76.7,72.0,69.4,99,91,61,30.22,30.06,8,1,13,0.00
2013-8-13,80.4,71.7,68.9,74.2,70.1,62.2,99,95,84,30.18,30.04,8,1,11,5.53
2013-8-14,78.8,69.3,63.0,65.2,60.6,56.9,95,75,51,30.26,30.17,12,4,15,0.00
2013-8-15,77.2,65.8,55.0,59.1,56.3,52.7,99,74,45,30.28,30.13,7,2,9,0.00
2013-8-16,76.5,66.3,58.5,61.7,58.1,56.3,95,77,52,30.26,30.17,7,2,8,0.00
2013-8-17,78.8,68.0,57.4,63.0,59.5,56.3,98,76,52,30.27,30.15,8,2,11,0.00
2013-8-18,82.0,71.3,59.9,67.7,62.3,57.6,99,76,45,30.26,30.14,8,1,12,0.00
2013-8-19,87.3,73.6,62.1,67.6,64.0,59.1,98,75,44,30.25,30.10,5,1,6,0.00
2013-8-20,88.9,75.3,63.5,68.5,65.0,62.3,99,73,45,30.22,30.11,7,1,8,0.00
2013-8-21,91.4,77.0,64.0,71.4,66.6,62.6,97,74,43,30.24,30.13,7,1,10,0.00
2013-8-22,95.0,79.7,66.2,73.2,68.2,63.6,96,71,42,30.25,30.11,4,1,4,0.00
2013-8-23,92.3,79.2,66.9,73.1,68.8,65.0,99,73,44,30.21,30.09,4,1,6,0.00
2013-8-24,88.3,79.2,70.2,73.0,69.3,64.2,94,74,47,30.26,30.15,8,3,11,0.00
2013-8-25,94.3,80.4,69.3,74.5,69.9,64.8,97,73,45,30.34,30.20,10,2,11,0.00
2013-8-26,92.3,80.4,71.2,74.3,70.2,66.8,97,73,48,30.33,30.19,8,2,8,5.53
2013-8-27,95.5,78.8,65.8,71.5,67.1,62.5,99,72,40,30.26,30.12,8,1,10,0.00
2013-8-28,96.1,80.4,66.4,73.7,69.6,66.1,99,73,45,30.21,30.10,4,1,5,0.00
2013-8-29,98.2,82.4,68.4,75.0,71.5,67.5,99,74,42,30.21,30.07,3,0,4,0.00
2013-8-30,98.1,82.8,71.6,75.0,71.6,67.5,97,73,42,30.15,29.98,4,1,7,0.00
2013-8-31,99.1,84.1,70.9,75.9,70.9,68.0,97,68,38,30.05,29.89,4,1,5,0.00
2013-9-1,87.8,77.8,72.0,73.2,70.1,66.5,95,78,57,30.12,29.91,14,2,17,0.00
2013-9-2,87.8,76.2,68.7,72.1,66.4,61.6,99,74,46,30.12,30.02,6,2,8,0.00
2013-9-3,89.1,74.1,59.4,66.8,61.8,56.8,99,69,38,30.19,30.08,5,1,7,0.00
2013-9-4,88.0,73.8,59.9,65.0,61.3,57.3,98,68,41,30.26,30.16,4,1,7,0.00
2013-9-5,87.1,73.9,60.8,65.7,61.5,58.5,93,68,41,30.31,30.20,6,1,8,0.00
2013-9-6,88.2,74.7,59.9,66.8,62.4,58.5,96,69,39,30.28,30.11,4,1,6,0.00
2013-9-7,94.3,78.7,65.1,71.4,66.1,62.7,96,69,40,30.18,30.00,6,2,8,0.00
2013-9-8,97.0,81.3,66.9,73.0,68.2,63.9,92,68,38,30.10,29.96,3,0,5,0.00
2013-9-9,97.5,81.1,68.4,72.1,67.2,60.5,97,67,36,30.13,30.02,10,1,11,0.00
2013-9-10,95.7,80.0,65.8,70.0,65.2,57.3,94,65,33,30.25,30.13,8,2,12,0.00
2013-9-11,97.2,80.0,68.2,72.9,68.2,64.1,95,70,42,30.28,30.14,5,1,7,0.00
2013-9-12,93.0,79.4,68.5,73.6,68.9,63.1,99,73,44,30.22,30.08,4,1,7,0.00
2013-9-13,81.7,72.6,63.5,67.7,55.4,47.4,81,56,33,30.22,30.09,12,4,16,0.00
2013-9-14,79.0,66.8,55.0,56.6,52.4,45.8,90,63,33,30.23,30.08,11,2,13,0.00
2013-9-15,89.1,73.1,56.7,68.4,58.6,50.6,85,63,36,30.19,30.07,4,2,6,0.00
2013-9-16,76.1,70.9,67.5,70.9,66.4,61.6,98,86,76,30.33,30.16,12,2,13,0.00
2013-9-17,84.7,73.8,65.5,70.7,66.7,62.5,99,80,50,30.27,30.11,8,3,11,5.54
2013-9-18,86.7,77.2,69.6,70.4,66.4,62.9,85,70,52,30.15,30.04,8,3,11,0.00
2013-9-19,91.8,79.3,72.9,70.0,67.2,64.0,81,68,44,30.11,29.98,9,3,11,0.00
2013-9-20,76.3,66.2,59.7,69.5,62.6,52.7,99,89,67,30.14,30.03,6,2,10,1.15
2013-9-21,73.4,63.0,51.4,57.0,50.8,41.9,99,68,34,30.15,30.03,8,2,11,0.00
2013-11-3,51.8,51.4,50.9,40.5,40.1,39.6,67,65,63,30.24,30.17,17,9,22,0.00
2013-11-4,50.7,50.7,50.5,40.8,40.5,40.4,69,68,68,30.19,30.17,14,9,18,0.00
2013-11-15,52.9,52.5,52.2,49.8,48.9,48.1,90,87,86,30.04,30.00,1,0,2,0.24
2013-11-16,69.1,63.0,53.1,64.0,57.6,48.3,92,83,68,30.03,29.72,17,3,24,14.01
2013-11-17,77.2,67.3,52.3,64.8,42.6,15.4,84,47,16,30.22,29.65,11,4,17,0.00
2013-11-18,62.4,52.2,42.3,38.4,26.2,16.0,70,40,19,30.40,30.20,11,3,14,0.00
2013-11-19,58.3,50.0,42.8,29.3,20.8,11.8,50,33,20,30.40,30.18,16,7,20,0.00
2013-11-20,62.2,52.9,43.3,39.4,22.2,11.2,53,31,18,30.19,30.00,15,6,20,0.00
2013-11-21,56.5,49.8,45.9,50.4,48.2,38.2,99,95,51,30.37,30.09,10,3,11,1.09
2013-11-22,45.5,33.3,30.9,44.7,32.5,29.7,99,97,92,30.69,30.37,9,4,14,0.02
2013-11-23,37.9,31.6,23.2,29.9,19.6,4.1,94,64,25,30.86,30.68,14,4,20,0.00
2013-11-24,29.3,24.0,17.2,12.3,8.5,5.4,65,52,39,30.89,30.49,17,6,19,0.00
2013-11-25,35.8,32.0,27.7,29.9,22.5,7.2,88,70,35,30.49,30.31,7,2,9,0.02
2013-11-26,46.2,35.1,26.1,31.5,25.1,12.2,86,68,47,30.48,27.24,57,3,57,15.15
2013-11-27,38.7,27.2,18.9,13.7,7.5,1.9,65,45,22,30.61,30.45,8,2,12,0.00
2013-11-28,55.9,38.4,23.0,28.5,19.4,9.1,73,48,26,30.62,30.40,4,1,6,0.00
2013-11-29,57.2,40.6,25.5,31.3,23.0,14.2,85,55,21,30.66,30.45,10,2,12,0.00
2013-11-30,59.2,46.8,34.3,44.0,36.2,23.1,93,67,53,30.48,30.23,8,2,11,0.00
2013-12-1,55.8,50.4,44.8,51.3,47.9,42.7,99,91,82,30.27,30.00,3,0,4,0.00
2013-12-2,66.0,50.4,41.2,55.1,45.5,40.9,99,86,52,30.00,29.74,6,1,7,0.01
2013-12-3,68.0,52.2,37.4,54.0,46.6,37.1,99,84,47,29.83,29.60,12,4,18,0.01
2013-12-4,66.4,49.5,34.2,49.8,43.5,30.5,99,82,51,30.10,29.67,7,3,8,0.00
2013-12-5,34.0,24.6,19.4,30.5,18.6,13.8,91,78,60,30.42,30.10,11,3,16,0.00
2013-12-6,42.3,17.7,15.6,27.3,11.6,2.1,89,77,54,30.75,30.38,15,5,20,15.17
2013-12-7,20.5,15.6,8.4,6.3,0.2,-7.8,61,50,28,30.85,30.49,17,8,20,0.00
2013-12-8,28.9,24.3,18.7,25.8,19.3,4.8,89,82,51,30.50,30.16,11,2,12,0.00
2013-12-9,28.2,24.0,20.3,23.3,14.5,8.7,86,67,52,30.51,30.35,10,3,13,0.00
2013-12-10,36.5,25.2,13.6,18.5,11.3,6.8,81,58,31,30.60,30.43,6,1,8,0.00
2013-12-11,41.0,27.1,16.2,25.3,15.0,8.2,85,61,45,30.79,30.43,9,2,12,0.00
2013-12-12,45.5,29.2,12.7,19.9,10.7,4.3,76,49,23,30.79,30.43,6,2,7,0.01
2013-12-13,36.3,34.3,28.8,34.5,26.8,13.7,96,75,41,30.43,29.98,10,3,12,0.88
2013-12-14,36.0,31.3,25.0,34.9,28.7,20.3,98,90,77,30.39,29.97,8,1,13,0.20
2013-12-15,50.9,35.7,20.8,31.3,25.3,17.9,89,68,43,30.42,30.24,4,2,6,0.00
2013-12-16,64.2,50.0,41.5,35.3,30.8,28.0,71,49,26,30.28,30.15,4,2,7,0.00
2013-12-17,60.8,46.8,33.1,40.2,31.2,-16.1,84,57,26,30.46,30.25,6,1,41,0.00
2013-12-18,62.8,47.3,30.6,39.0,31.4,22.6,85,57,31,30.44,30.06,11,3,14,0.00
2013-12-19,61.3,56.1,51.8,56.1,48.4,38.5,85,76,56,30.07,29.83,12,5,17,0.00
2013-12-20,64.6,48.2,33.6,58.6,45.0,33.3,99,89,75,30.04,29.81,7,2,11,0.32
2013-12-21,39.6,36.1,32.5,39.3,35.7,32.3,99,99,97,29.95,29.60,17,3,19,1.24
2013-12-22,34.9,28.8,24.8,34.2,25.3,19.1,99,87,74,30.50,29.82,5,0,8,0.00
2013-12-23,28.0,23.1,16.0,20.5,17.3,11.5,84,78,65,30.75,30.49,0,0,0,0.00
2013-12-24,41.5,26.5,13.1,25.4,17.5,8.9,85,70,49,30.74,30.40,13,3,16,0.02
2013-12-25,47.1,34.9,25.5,32.9,27.2,20.8,89,74,56,30.59,30.40,5,1,8,0.00
2013-12-26,53.1,35.2,22.3,36.0,23.9,19.5,96,68,31,30.59,30.41,4,1,7,0.00
2013-12-27,60.8,40.3,25.2,35.7,26.2,20.2,86,61,27,30.57,30.41,4,1,5,0.00
2013-12-28,55.6,40.4,26.8,36.0,26.2,19.0,80,60,30,30.48,30.09,8,2,14,0.02
2013-12-29,41.4,30.4,20.1,37.2,23.5,12.7,88,75,68,30.45,30.10,6,2,9,0.00
2013-12-30,40.6,25.9,15.8,22.4,15.7,8.7,77,66,46,30.53,30.34,8,2,10,18.66
2013-12-31,57.2,36.7,19.0,30.3,20.3,14.5,87,56,21,30.58,30.32,10,2,15,0.00
2014-1-1,57.6,42.2,23.2,34.9,25.7,16.8,80,53,28,30.34,30.01,11,3,14,0.00
2014-1-2,29.7,19.3,12.2,17.1,6.7,-0.4,85,59,41,30.65,30.32,7,2,11,0.00